Time;durP1;ratioP1;P1;durP2;ratioP2;P2;SDS_P1;SDS_P2;PMS_P1;PMS_P2;Temp;Humidity;BMP_temperature;BMP_pressure;BME280_temperature;BME280_humidity;BME280_pressure;Samples;Min_cycle;Max_cycle;Signal;HPM_P1;HPM_P2
2023/06/14 00:05:29;;;;;;;3.97;2.60;;;13.80;99.90;;;;;;5028115;28;20413;-70
2023/06/14 00:07:55;;;;;;;4.03;2.60;;;13.70;99.90;;;;;;5025367;28;20537;-70
2023/06/14 00:10:20;;;;;;;3.17;2.90;;;13.70;99.90;;;;;;5031396;28;20493;-70
2023/06/14 00:12:46;;;;;;;3.80;2.20;;;13.60;99.90;;;;;;5028611;28;20238;-72
2023/06/14 00:15:11;;;;;;;2.70;2.43;;;13.60;99.90;;;;;;5029651;28;20211;-70
2023/06/14 00:17:38;;;;;;;2.57;2.37;;;13.60;99.90;;;;;;5029893;28;20203;-71
2023/06/14 00:20:07;;;;;;;2.20;1.97;;;13.50;99.90;;;;;;5028823;28;20247;-72
2023/06/14 00:22:34;;;;;;;3.17;2.87;;;13.50;99.90;;;;;;5030501;28;20450;-70
2023/06/14 00:25:00;;;;;;;4.70;2.57;;;13.50;99.90;;;;;;5024014;28;20440;-71
2023/06/14 00:27:25;;;;;;;3.50;2.73;;;13.50;99.90;;;;;;5030859;28;20799;-73
2023/06/14 00:29:51;;;;;;;4.90;2.83;;;13.40;99.90;;;;;;5027980;28;20461;-71
2023/06/14 00:32:18;;;;;;;4.40;2.53;;;13.40;99.90;;;;;;5030413;28;20190;-72
2023/06/14 00:34:43;;;;;;;3.17;2.87;;;13.30;99.90;;;;;;5032033;28;20187;-70
2023/06/14 00:37:09;;;;;;;3.50;2.90;;;13.30;99.90;;;;;;5027316;28;20450;-71
2023/06/14 00:39:35;;;;;;;4.73;3.37;;;13.30;99.90;;;;;;5063221;23;20607;-67
2023/06/14 00:42:00;;;;;;;4.00;3.00;;;13.30;99.90;;;;;;5028910;28;20234;-69
2023/06/14 00:44:26;;;;;;;4.10;3.57;;;13.20;99.90;;;;;;5022459;28;20555;-68
2023/06/14 00:46:51;;;;;;;3.60;3.30;;;13.20;99.90;;;;;;5028144;28;20179;-68
2023/06/14 00:49:18;;;;;;;3.33;2.80;;;13.20;99.90;;;;;;5018868;28;20557;-69
2023/06/14 00:51:43;;;;;;;3.37;3.03;;;13.20;99.90;;;;;;5022296;28;20572;-68
2023/06/14 00:54:09;;;;;;;3.17;2.90;;;13.20;99.90;;;;;;5019144;28;20458;-70
2023/06/14 00:56:39;;;;;;;3.23;2.70;;;13.30;99.90;;;;;;5020466;28;20180;-68
2023/06/14 00:59:05;;;;;;;4.23;3.30;;;13.30;99.90;;;;;;5023597;28;20541;-68
2023/06/14 01:01:32;;;;;;;3.77;3.37;;;13.30;99.90;;;;;;5023111;28;20411;-68
2023/06/14 01:03:59;;;;;;;3.00;2.63;;;13.30;99.90;;;;;;5018753;28;20549;-68
2023/06/14 01:06:44;;;;;;;4.63;3.83;;;13.30;99.90;;;;;;5018362;28;20465;-68
2023/06/14 01:09:23;;;;;;;3.67;3.00;;;13.30;99.90;;;;;;5020862;28;20922;-69
2023/06/14 01:12:10;;;;;;;4.30;3.47;;;13.30;99.90;;;;;;5016400;28;20478;-67
2023/06/14 01:14:37;;;;;;;3.93;3.40;;;13.20;99.90;;;;;;5025065;28;20695;-68
2023/06/14 01:17:04;;;;;;;3.80;3.50;;;13.20;99.90;;;;;;5016450;28;20446;-69
2023/06/14 01:19:31;;;;;;;4.20;3.80;;;13.20;99.90;;;;;;5026657;28;20425;-68
2023/06/14 01:21:59;;;;;;;4.80;4.20;;;13.20;99.90;;;;;;5026252;28;20878;-68
2023/06/14 01:24:25;;;;;;;4.33;3.90;;;13.20;99.90;;;;;;5021380;28;20419;-68
2023/06/14 01:26:55;;;;;;;4.30;3.33;;;13.20;99.90;;;;;;5020457;28;20732;-70
2023/06/14 01:29:23;;;;;;;5.33;4.07;;;13.20;99.90;;;;;;5019790;28;20442;-69
2023/06/14 01:31:50;;;;;;;4.17;3.83;;;13.20;99.90;;;;;;5023352;28;20423;-68
2023/06/14 01:34:16;;;;;;;4.87;3.37;;;13.20;99.90;;;;;;5022443;28;21003;-68
2023/06/14 01:36:43;;;;;;;3.67;3.37;;;13.20;99.90;;;;;;5026170;28;20501;-68
2023/06/14 01:39:13;;;;;;;5.23;3.57;;;13.10;99.90;;;;;;5019397;28;20219;-68
2023/06/14 01:41:40;;;;;;;4.37;3.40;;;13.10;99.90;;;;;;5024075;28;20405;-68
2023/06/14 01:44:06;;;;;;;3.47;3.17;;;13.10;99.90;;;;;;5024852;28;20785;-69
2023/06/14 01:46:32;;;;;;;7.10;5.10;;;13.10;99.90;;;;;;5025561;28;20414;-68
2023/06/14 01:48:58;;;;;;;3.80;3.50;;;13.10;99.90;;;;;;5020603;28;20986;-69
2023/06/14 01:51:24;;;;;;;6.67;4.80;;;13.10;99.90;;;;;;5023601;28;20259;-68
2023/06/14 01:53:49;;;;;;;4.97;4.00;;;13.00;99.90;;;;;;5022735;28;20498;-68
2023/06/14 01:56:16;;;;;;;5.40;4.00;;;13.00;99.90;;;;;;5029380;28;20172;-69
2023/06/14 01:58:41;;;;;;;4.73;4.30;;;13.00;99.90;;;;;;5025621;28;20218;-69
2023/06/14 02:01:07;;;;;;;5.90;4.40;;;12.90;99.90;;;;;;5022882;28;20415;-68
2023/06/14 02:03:34;;;;;;;5.43;4.10;;;12.90;99.90;;;;;;5026110;28;20176;-71
2023/06/14 02:05:59;;;;;;;5.10;4.10;;;12.90;99.90;;;;;;5024496;28;20773;-69
2023/06/14 02:08:25;;;;;;;4.93;4.37;;;12.90;99.90;;;;;;5027113;28;20433;-68
2023/06/14 02:10:51;;;;;;;4.80;4.10;;;12.90;99.90;;;;;;5038227;28;20192;-70
2023/06/14 02:13:17;;;;;;;6.23;5.07;;;12.80;99.90;;;;;;5023142;28;20187;-68
2023/06/14 02:15:43;;;;;;;11.87;5.57;;;12.80;99.90;;;;;;5026100;28;20886;-68
2023/06/14 02:18:09;;;;;;;5.37;4.87;;;12.80;99.90;;;;;;5029193;28;20206;-68
2023/06/14 02:20:35;;;;;;;4.87;4.33;;;12.80;99.90;;;;;;5027125;28;20514;-68
2023/06/14 02:23:01;;;;;;;5.40;4.60;;;12.70;99.90;;;;;;5027505;28;20402;-69
2023/06/14 02:25:27;;;;;;;5.17;4.67;;;12.70;99.90;;;;;;5026707;28;20422;-69
2023/06/14 02:27:54;;;;;;;5.43;4.43;;;12.80;99.90;;;;;;5026555;28;20167;-68
2023/06/14 02:30:21;;;;;;;5.47;3.97;;;12.70;99.90;;;;;;5032702;28;20508;-69
2023/06/14 02:32:48;;;;;;;5.63;4.30;;;12.70;99.90;;;;;;5028534;28;20583;-68
2023/06/14 02:35:14;;;;;;;6.63;5.17;;;12.70;99.90;;;;;;5028526;28;20576;-68
2023/06/14 02:37:40;;;;;;;5.70;5.20;;;12.60;99.90;;;;;;5031308;28;20409;-68
2023/06/14 02:40:06;;;;;;;5.43;4.93;;;12.50;99.90;;;;;;5027822;28;20422;-68
2023/06/14 02:42:32;;;;;;;8.50;4.97;;;12.50;99.90;;;;;;5031477;28;20174;-68
2023/06/14 02:44:58;;;;;;;7.90;5.43;;;12.40;99.90;;;;;;5029359;28;20446;-68
2023/06/14 02:47:24;;;;;;;5.40;4.40;;;12.40;99.90;;;;;;5026424;28;20176;-68
2023/06/14 02:49:50;;;;;;;5.70;4.73;;;12.40;99.90;;;;;;5028851;28;20191;-68
2023/06/14 02:52:16;;;;;;;6.17;4.60;;;12.40;99.90;;;;;;5033541;28;20903;-68
2023/06/14 02:54:41;;;;;;;10.57;5.47;;;12.30;99.90;;;;;;5031629;28;20744;-68
2023/06/14 02:57:07;;;;;;;5.80;5.30;;;12.40;99.90;;;;;;5032704;28;20489;-69
2023/06/14 02:59:34;;;;;;;15.87;5.30;;;12.40;99.90;;;;;;5028490;28;20275;-69
2023/06/14 03:01:59;;;;;;;5.47;4.83;;;12.30;99.90;;;;;;5032611;28;20780;-70
2023/06/14 03:04:25;;;;;;;6.50;5.00;;;12.30;99.90;;;;;;5034879;28;20441;-69
2023/06/14 03:06:53;;;;;;;5.47;4.87;;;12.30;99.90;;;;;;5024376;28;20172;-69
2023/06/14 03:09:19;;;;;;;7.93;5.00;;;12.30;99.90;;;;;;5032593;28;20434;-69
2023/06/14 03:11:45;;;;;;;5.40;4.90;;;12.30;99.90;;;;;;5032622;28;20791;-69
2023/06/14 03:14:11;;;;;;;5.40;4.13;;;12.30;99.90;;;;;;5030676;28;20442;-68
2023/06/14 03:16:37;;;;;;;5.80;5.30;;;12.30;99.90;;;;;;5031692;28;20168;-68
2023/06/14 03:19:02;;;;;;;9.60;5.20;;;12.30;99.90;;;;;;5025706;28;20477;-67
2023/06/14 03:21:28;;;;;;;6.10;5.53;;;12.30;99.90;;;;;;5032619;28;20972;-69
2023/06/14 03:23:54;;;;;;;6.10;5.47;;;12.40;99.90;;;;;;5030377;28;20179;-68
2023/06/14 03:26:20;;;;;;;7.30;5.63;;;12.40;99.90;;;;;;5031692;28;20178;-68
2023/06/14 03:28:46;;;;;;;6.00;5.40;;;12.40;99.90;;;;;;5030311;28;20701;-68
2023/06/14 03:31:16;;;;;;;8.97;6.10;;;12.40;99.90;;;;;;5028965;28;20174;-69
2023/06/14 03:33:41;;;;;;;6.90;5.53;;;12.50;99.90;;;;;;5033307;28;20413;-70
2023/06/14 03:36:07;;;;;;;6.60;5.20;;;12.50;99.90;;;;;;5029136;28;20929;-68
2023/06/14 03:38:33;;;;;;;6.17;5.57;;;12.50;99.90;;;;;;5034684;28;20218;-69
2023/06/14 03:40:59;;;;;;;10.83;6.70;;;12.50;99.90;;;;;;5035340;28;20517;-68
2023/06/14 03:43:25;;;;;;;7.00;5.43;;;12.60;99.90;;;;;;5035351;28;20398;-68
2023/06/14 03:45:51;;;;;;;8.13;6.83;;;12.60;99.90;;;;;;5031100;28;20179;-68
2023/06/14 03:48:16;;;;;;;7.07;6.00;;;12.60;99.90;;;;;;5028101;28;20191;-68
2023/06/14 03:50:42;;;;;;;8.43;5.83;;;12.60;99.90;;;;;;5031471;28;20419;-68
2023/06/14 03:53:08;;;;;;;5.77;5.20;;;12.70;99.90;;;;;;5028762;28;20239;-68
2023/06/14 03:55:34;;;;;;;7.13;6.30;;;12.70;99.90;;;;;;5024647;28;20466;-67
2023/06/14 03:58:00;;;;;;;7.20;5.87;;;12.80;99.90;;;;;;5031234;28;20655;-68
2023/06/14 04:00:26;;;;;;;7.23;5.83;;;12.90;99.90;;;;;;5029860;28;20411;-68
2023/06/14 04:02:52;;;;;;;5.70;5.10;;;13.10;99.90;;;;;;5021219;28;20538;-69
2023/06/14 04:05:19;;;;;;;7.07;6.40;;;13.20;99.90;;;;;;5027278;28;20410;-70
2023/06/14 04:07:45;;;;;;;6.00;5.50;;;13.30;99.90;;;;;;5032277;28;20406;-68
2023/06/14 04:10:13;;;;;;;7.10;5.60;;;13.40;99.90;;;;;;5028381;28;20478;-68
2023/06/14 04:12:38;;;;;;;6.87;6.20;;;13.50;99.90;;;;;;5030636;28;20410;-69
2023/06/14 04:15:08;;;;;;;6.13;5.53;;;13.60;99.90;;;;;;5030883;28;20519;-69
2023/06/14 04:17:34;;;;;;;7.93;5.43;;;13.80;99.90;;;;;;5029528;28;20426;-68
2023/06/14 04:20:01;;;;;;;6.90;5.40;;;14.60;99.90;;;;;;5027222;28;20435;-68
2023/06/14 04:22:31;;;;;;;9.13;6.00;;;15.60;99.90;;;;;;5027806;28;20887;-68
2023/06/14 04:24:57;;;;;;;5.87;5.37;;;16.70;99.90;;;;;;5030664;28;20471;-69
2023/06/14 04:27:25;;;;;;;6.73;5.00;;;17.30;99.90;;;;;;5027463;28;20500;-69
2023/06/14 04:29:56;;;;;;;4.97;4.47;;;17.90;99.90;;;;;;5028768;28;20433;-68
2023/06/14 04:32:25;;;;;;;4.73;4.33;;;17.80;99.90;;;;;;5029069;28;20936;-68
2023/06/14 04:34:53;;;;;;;4.50;4.10;;;17.10;99.90;;;;;;5027496;28;20445;-69
2023/06/14 04:37:20;;;;;;;5.80;5.13;;;17.50;99.90;;;;;;5025795;28;20495;-69
2023/06/14 04:39:47;;;;;;;5.43;4.17;;;18.00;99.90;;;;;;5027809;28;20452;-68
2023/06/14 04:42:14;;;;;;;5.70;4.10;;;18.10;99.90;;;;;;5030398;28;20419;-68
2023/06/14 04:44:41;;;;;;;6.67;5.00;;;18.30;99.90;;;;;;5025583;28;20406;-68
2023/06/14 04:47:07;;;;;;;7.10;4.70;;;18.00;99.90;;;;;;5028140;28;20418;-68
2023/06/14 04:49:33;;;;;;;4.97;4.47;;;18.20;99.90;;;;;;5024837;28;20426;-68
2023/06/14 04:52:01;;;;;;;7.67;4.70;;;17.70;99.90;;;;;;5031200;28;20172;-68
2023/06/14 04:54:27;;;;;;;5.60;4.83;;;17.20;99.90;;;;;;5027117;28;20501;-68
2023/06/14 04:56:54;;;;;;;5.67;5.13;;;17.40;99.90;;;;;;5030546;28;20443;-68
2023/06/14 04:59:22;;;;;;;6.07;5.43;;;17.40;99.90;;;;;;5026480;28;20426;-69
2023/06/14 05:01:49;;;;;;;8.40;5.17;;;17.60;99.90;;;;;;5028540;28;20412;-68
2023/06/14 05:04:15;;;;;;;4.30;3.80;;;18.50;99.90;;;;;;5025612;28;20419;-68
2023/06/14 05:06:44;;;;;;;6.00;4.67;;;18.40;99.90;;;;;;5026871;28;20989;-69
2023/06/14 05:09:14;;;;;;;8.30;4.97;;;18.80;99.90;;;;;;5028064;28;20461;-70
2023/06/14 05:11:42;;;;;;;5.40;4.93;;;19.20;99.90;;;;;;5029345;28;20441;-69
2023/06/14 05:14:07;;;;;;;5.00;4.50;;;18.50;99.90;;;;;;5031577;28;20445;-69
2023/06/14 05:16:33;;;;;;;5.30;4.83;;;17.70;99.90;;;;;;5027260;28;20410;-68
2023/06/14 05:19:01;;;;;;;6.20;5.07;;;17.40;99.90;;;;;;5032089;28;20244;-68
2023/06/14 05:21:26;;;;;;;6.40;4.90;;;17.30;99.90;;;;;;5025053;28;20514;-68
2023/06/14 05:23:53;;;;;;;6.00;4.60;;;17.30;99.90;;;;;;5029749;28;20462;-70
2023/06/14 05:26:19;;;;;;;7.00;4.43;;;17.30;99.90;;;;;;5032853;28;20175;-69
2023/06/14 05:28:45;;;;;;;5.70;5.03;;;17.20;99.90;;;;;;5030654;28;20932;-70
2023/06/14 05:31:10;;;;;;;7.83;5.00;;;16.90;99.90;;;;;;5031445;28;20278;-70
2023/06/14 05:33:36;;;;;;;6.90;5.80;;;16.70;99.90;;;;;;5024919;28;20167;-69
2023/06/14 05:36:02;;;;;;;7.33;5.43;;;16.70;99.90;;;;;;5029031;28;20574;-69
2023/06/14 05:38:27;;;;;;;9.83;6.73;;;16.60;99.90;;;;;;5022436;28;20238;-69
2023/06/14 05:40:53;;;;;;;8.70;6.70;;;16.40;99.90;;;;;;5031266;28;20205;-70
2023/06/14 05:43:19;;;;;;;6.93;5.87;;;16.50;99.90;;;;;;5036232;28;20168;-67
2023/06/14 05:45:45;;;;;;;6.47;5.87;;;16.40;99.90;;;;;;5029649;28;20434;-68
2023/06/14 05:48:10;;;;;;;7.27;5.33;;;16.50;99.90;;;;;;5034140;28;20307;-68
2023/06/14 05:50:36;;;;;;;6.53;5.93;;;16.30;99.90;;;;;;5034827;28;20175;-70
2023/06/14 05:53:01;;;;;;;7.43;6.67;;;16.40;99.90;;;;;;5041271;28;20270;-69
2023/06/14 05:55:27;;;;;;;7.77;5.77;;;16.20;99.90;;;;;;5038903;28;20267;-68
2023/06/14 05:57:53;;;;;;;7.00;6.30;;;16.00;99.90;;;;;;5031839;28;20173;-69
2023/06/14 06:00:19;;;;;;;6.20;5.60;;;16.00;99.90;;;;;;5033656;28;20210;-68
2023/06/14 06:02:47;;;;;;;6.57;5.87;;;16.00;99.90;;;;;;5035049;28;20165;-69
2023/06/14 06:05:15;;;;;;;9.73;4.83;;;15.90;99.90;;;;;;5033923;28;20420;-68
2023/06/14 06:07:41;;;;;;;9.27;5.60;;;15.90;99.90;;;;;;5035681;28;20526;-68
2023/06/14 06:10:07;;;;;;;8.63;5.47;;;15.90;99.90;;;;;;5032516;28;20570;-68
2023/06/14 06:12:33;;;;;;;6.07;5.30;;;15.80;99.90;;;;;;5034541;28;20994;-68
2023/06/14 06:14:59;;;;;;;8.20;5.13;;;15.70;99.90;;;;;;5032049;28;20488;-67
2023/06/14 06:17:26;;;;;;;5.90;5.20;;;15.70;99.90;;;;;;5032263;28;20178;-69
2023/06/14 06:19:52;;;;;;;6.70;5.20;;;15.80;99.90;;;;;;5022093;28;20911;-69
2023/06/14 06:22:17;;;;;;;5.43;4.93;;;15.80;99.90;;;;;;5029089;28;20435;-69
2023/06/14 06:24:43;;;;;;;5.03;4.43;;;15.90;99.90;;;;;;5033561;28;20181;-68
2023/06/14 06:27:09;;;;;;;6.03;5.07;;;16.00;99.90;;;;;;5028209;28;20268;-69
2023/06/14 06:29:35;;;;;;;6.10;5.20;;;16.10;99.90;;;;;;5032465;28;20206;-69
2023/06/14 06:32:01;;;;;;;6.10;5.50;;;16.20;99.90;;;;;;5030011;28;20204;-68
2023/06/14 06:34:27;;;;;;;5.97;5.37;;;16.20;99.90;;;;;;5031571;28;20485;-69
2023/06/14 06:36:52;;;;;;;6.77;5.40;;;16.20;99.90;;;;;;5021918;28;20419;-69
2023/06/14 06:39:18;;;;;;;6.93;4.83;;;16.00;99.90;;;;;;5031252;28;20686;-69
2023/06/14 06:41:43;;;;;;;8.27;5.50;;;16.10;99.90;;;;;;5033821;28;20176;-69
2023/06/14 06:44:12;;;;;;;6.03;5.43;;;16.10;99.90;;;;;;5029983;28;20185;-69
2023/06/14 06:46:40;;;;;;;7.67;4.70;;;16.10;99.90;;;;;;5032781;28;20187;-69
2023/06/14 06:49:06;;;;;;;7.63;4.93;;;16.10;99.90;;;;;;5027413;28;20486;-68
2023/06/14 06:51:32;;;;;;;6.13;5.23;;;16.30;99.90;;;;;;5027872;28;20435;-68
2023/06/14 06:53:58;;;;;;;5.03;4.53;;;16.40;99.90;;;;;;5027653;28;20473;-68
2023/06/14 06:56:24;;;;;;;5.40;4.90;;;16.50;99.90;;;;;;5031113;28;20627;-69
2023/06/14 06:58:50;;;;;;;6.10;5.57;;;16.60;99.90;;;;;;5029132;28;20580;-69
2023/06/14 07:01:16;;;;;;;6.37;5.77;;;16.70;99.90;;;;;;5032044;28;20446;-69
2023/06/14 07:03:43;;;;;;;6.33;5.13;;;16.80;99.90;;;;;;5027900;28;20406;-69
2023/06/14 07:06:08;;;;;;;5.73;4.60;;;16.90;99.90;;;;;;5024105;28;20456;-70
2023/06/14 07:08:35;;;;;;;5.67;5.10;;;17.00;99.90;;;;;;5022930;28;20482;-68
2023/06/14 07:11:02;;;;;;;6.83;5.37;;;17.20;99.90;;;;;;5022023;28;20210;-69
2023/06/14 07:13:27;;;;;;;8.90;5.87;;;17.20;99.90;;;;;;5021299;28;20464;-69
2023/06/14 07:16:00;;;;;;;7.27;4.87;;;17.20;99.90;;;;;;5029254;28;21015;-70
2023/06/14 07:18:26;;;;;;;9.23;6.03;;;17.20;99.90;;;;;;5021804;28;20355;-70
2023/06/14 07:20:53;;;;;;;4.87;4.33;;;17.30;99.90;;;;;;5027729;28;20411;-71
2023/06/14 07:23:19;;;;;;;5.60;4.70;;;17.30;99.90;;;;;;5031551;28;20425;-68
2023/06/14 07:25:45;;;;;;;5.60;4.97;;;17.40;99.90;;;;;;5031070;28;20434;-69
2023/06/14 07:28:11;;;;;;;9.43;5.53;;;17.40;99.90;;;;;;5025211;28;20461;-69
2023/06/14 07:30:37;;;;;;;12.70;5.43;;;17.50;99.90;;;;;;5022101;28;20183;-69
2023/06/14 07:33:02;;;;;;;4.97;4.57;;;17.60;99.90;;;;;;5024889;28;20205;-70
2023/06/14 07:35:28;;;;;;;7.40;5.10;;;17.90;99.90;;;;;;5023343;28;20587;-69
2023/06/14 07:37:54;;;;;;;4.83;4.27;;;18.20;99.90;;;;;;5021008;28;20173;-69
2023/06/14 07:40:19;;;;;;;4.93;3.97;;;18.60;99.90;;;;;;5028387;28;20552;-68
2023/06/14 07:42:45;;;;;;;5.50;4.33;;;19.50;99.90;;;;;;5023433;28;20204;-68
2023/06/14 07:45:13;;;;;;;4.27;3.87;;;20.00;99.90;;;;;;5025525;28;20705;-68
2023/06/14 07:47:39;;;;;;;10.87;5.63;;;20.20;99.90;;;;;;5021840;28;20204;-69
2023/06/14 07:50:05;;;;;;;7.50;4.80;;;20.70;99.90;;;;;;5025313;28;20832;-69
2023/06/14 07:52:31;;;;;;;5.43;4.87;;;21.10;99.90;;;;;;5031786;28;20259;-70
2023/06/14 07:54:56;;;;;;;14.47;5.20;;;21.10;99.90;;;;;;5027421;28;20537;-69
2023/06/14 07:57:22;;;;;;;4.50;3.43;;;21.70;99.90;;;;;;5030693;28;20174;-69
2023/06/14 07:59:48;;;;;;;5.63;4.23;;;21.20;99.90;;;;;;5024970;28;20684;-69
2023/06/14 08:02:14;;;;;;;9.97;4.40;;;21.10;99.90;;;;;;5030938;28;20582;-70
2023/06/14 08:04:40;;;;;;;4.50;3.40;;;21.30;99.90;;;;;;5024348;28;20189;-69
2023/06/14 08:07:06;;;;;;;6.93;3.87;;;21.50;99.90;;;;;;5028577;28;20439;-69
2023/06/14 08:09:32;;;;;;;7.00;4.53;;;22.30;99.90;;;;;;5031611;28;20437;-69
2023/06/14 08:11:58;;;;;;;10.87;4.10;;;22.40;99.90;;;;;;5027236;28;20441;-68
2023/06/14 08:14:23;;;;;;;4.50;4.10;;;22.80;99.90;;;;;;5031825;28;20203;-68
2023/06/14 08:16:49;;;;;;;6.40;3.27;;;22.50;99.90;;;;;;5030602;28;20193;-68
2023/06/14 08:19:16;;;;;;;4.33;3.93;;;22.30;99.90;;;;;;5031590;28;20201;-69
2023/06/14 08:21:43;;;;;;;4.07;3.67;;;22.20;99.90;;;;;;5022924;28;20173;-69
2023/06/14 08:24:12;;;;;;;8.30;4.10;;;22.40;99.90;;;;;;5029777;28;20935;-69
2023/06/14 08:26:38;;;;;;;4.07;3.40;;;22.40;99.90;;;;;;5030164;28;20415;-69
2023/06/14 08:29:04;;;;;;;7.10;3.80;;;22.20;99.90;;;;;;5026037;28;20449;-69
2023/06/14 08:31:31;;;;;;;6.23;4.43;;;22.90;99.90;;;;;;5031511;28;20414;-69
2023/06/14 08:33:57;;;;;;;5.17;3.20;;;23.80;99.90;;;;;;5025038;28;20174;-68
2023/06/14 08:36:22;;;;;;;3.93;2.63;;;24.00;99.90;;;;;;5030052;28;20428;-69
2023/06/14 08:38:48;;;;;;;5.37;2.60;;;24.30;99.90;;;;;;5027138;28;20207;-69
2023/06/14 08:41:22;;;;;;;3.60;3.30;;;24.50;99.90;;;;;;5029248;28;20234;-69
2023/06/14 08:43:47;;;;;;;5.63;3.63;;;24.20;99.90;;;;;;5028971;28;20856;-69
2023/06/14 08:46:18;;;;;;;5.13;3.07;;;23.90;99.90;;;;;;5015146;28;20450;-69
2023/06/14 08:48:44;;;;;;;3.93;3.60;;;23.40;99.90;;;;;;5027329;28;20262;-69
2023/06/14 08:51:11;;;;;;;6.90;3.33;;;22.70;99.90;;;;;;5025085;28;20432;-68
2023/06/14 08:53:41;;;;;;;4.13;3.73;;;22.70;99.90;;;;;;5025931;28;20963;-68
2023/06/14 08:56:13;;;;;;;3.77;3.47;;;23.00;99.90;;;;;;5029591;28;20458;-69
2023/06/14 08:58:47;;;;;;;6.03;3.20;;;22.50;99.90;;;;;;5026424;28;20431;-69
2023/06/14 09:01:14;;;;;;;3.13;2.83;;;22.40;99.90;;;;;;5028841;28;20527;-68
2023/06/14 09:03:43;;;;;;;3.90;2.80;;;22.30;99.90;;;;;;5025426;28;20403;-69
2023/06/14 09:06:15;;;;;;;3.43;3.10;;;22.30;99.90;;;;;;5028555;28;20528;-69
2023/06/14 09:08:45;;;;;;;2.63;2.40;;;22.40;99.90;;;;;;5030061;28;20434;-69
2023/06/14 09:11:15;;;;;;;3.73;2.77;;;22.80;99.90;;;;;;5022835;28;20440;-69
2023/06/14 09:13:41;;;;;;;4.73;2.80;;;22.80;99.90;;;;;;5029784;28;20428;-69
2023/06/14 09:16:07;;;;;;;4.77;3.27;;;22.90;99.90;;;;;;5022719;28;21030;-69
2023/06/14 09:18:47;;;;;;;4.33;3.23;;;23.10;99.90;;;;;;5028090;28;20481;-69
2023/06/14 09:21:17;;;;;;;7.07;4.00;;;23.00;99.90;;;;;;5024998;28;20495;-69
2023/06/14 09:23:47;;;;;;;6.83;3.17;;;22.60;99.90;;;;;;5026115;28;20414;-70
2023/06/14 09:26:19;;;;;;;4.90;2.87;;;22.40;99.90;;;;;;5030609;28;20406;-69
2023/06/14 09:28:46;;;;;;;4.10;3.40;;;22.20;99.90;;;;;;5024867;28;20549;-71
2023/06/14 09:31:12;;;;;;;5.27;3.33;;;22.60;99.90;;;;;;5029999;28;20461;-69
2023/06/14 09:33:38;;;;;;;3.97;3.07;;;22.60;99.90;;;;;;5027487;28;20418;-67
2023/06/14 09:36:09;;;;;;;4.07;3.30;;;22.50;99.90;;;;;;5028782;28;20564;-72
2023/06/14 09:38:35;;;;;;;5.43;3.77;;;22.50;99.90;;;;;;5026968;28;20202;-68
2023/06/14 09:41:03;;;;;;;3.90;3.50;;;22.40;99.90;;;;;;5026318;28;20734;-66
2023/06/14 09:43:29;;;;;;;3.23;3.00;;;22.30;99.90;;;;;;5027420;28;20246;-68
2023/06/14 09:45:55;;;;;;;5.83;3.87;;;22.50;99.90;;;;;;5029031;28;20551;-69
2023/06/14 09:48:21;;;;;;;4.03;3.60;;;22.40;99.90;;;;;;5030237;28;20203;-69
2023/06/14 09:50:48;;;;;;;5.10;2.97;;;22.40;99.90;;;;;;5021866;28;20446;-68
2023/06/14 09:53:15;;;;;;;4.20;3.40;;;22.30;99.90;;;;;;5023784;28;20649;-69
2023/06/14 09:55:41;;;;;;;7.23;4.10;;;22.20;99.90;;;;;;5028644;28;20461;-69
2023/06/14 09:58:09;;;;;;;3.13;2.83;;;22.00;99.90;;;;;;5028731;28;20848;-67
2023/06/14 10:00:36;;;;;;;3.90;3.40;;;22.00;99.90;;;;;;5030165;28;20409;-68
2023/06/14 10:03:13;;;;;;;5.77;3.57;;;22.10;99.90;;;;;;5025509;28;20815;-67
2023/06/14 10:05:41;;;;;;;4.40;3.60;;;22.00;99.90;;;;;;5025628;28;20429;-67
2023/06/14 10:08:10;;;;;;;6.03;3.63;;;21.90;99.90;;;;;;5030580;28;20967;-67
2023/06/14 10:10:38;;;;;;;3.33;3.10;;;21.70;99.90;;;;;;5028592;28;20483;-67
2023/06/14 10:13:04;;;;;;;4.53;4.10;;;21.80;99.90;;;;;;5026531;28;20420;-71
2023/06/14 10:15:37;;;;;;;5.73;4.93;;;21.60;99.90;;;;;;5024086;28;20546;-67
2023/06/14 10:18:28;;;;;;;3.97;2.97;;;21.60;99.90;;;;;;5017202;28;20226;-68
2023/06/14 10:21:08;;;;;;;4.97;3.30;;;21.80;99.90;;;;;;5021302;28;20418;-68
2023/06/14 10:23:37;;;;;;;5.50;3.60;;;22.10;99.90;;;;;;5028925;28;20430;-70
2023/06/14 10:26:03;;;;;;;4.93;3.43;;;22.10;99.90;;;;;;5026403;28;20423;-75
2023/06/14 10:28:30;;;;;;;4.00;3.50;;;22.10;99.90;;;;;;5027537;28;20437;-70
2023/06/14 10:31:13;;;;;;;5.10;3.50;;;21.60;99.90;;;;;;5032595;28;20654;-67
2023/06/14 10:33:57;;;;;;;3.30;3.10;;;21.60;99.90;;;;;;5027634;28;20423;-69
2023/06/14 10:36:22;;;;;;;6.23;3.50;;;21.80;99.90;;;;;;5029303;28;20419;-69
2023/06/14 10:38:58;;;;;;;4.90;3.13;;;21.90;99.90;;;;;;5030672;28;20445;-68
2023/06/14 10:41:28;;;;;;;3.80;2.80;;;22.10;99.90;;;;;;5030166;28;20574;-68
2023/06/14 10:44:12;;;;;;;4.03;3.63;;;22.40;99.90;;;;;;5023673;28;20407;-71
2023/06/14 10:46:38;;;;;;;3.87;3.50;;;22.50;99.80;;;;;;5030338;28;21091;-64
2023/06/14 10:49:05;;;;;;;6.40;3.53;;;22.30;99.90;;;;;;5030749;28;20811;-74
2023/06/14 10:51:46;;;;;;;4.07;3.60;;;22.40;99.90;;;;;;5030610;28;20930;-69
2023/06/14 10:54:16;;;;;;;3.93;3.47;;;22.60;99.90;;;;;;5028102;28;20411;-70
2023/06/14 10:56:52;;;;;;;9.13;3.57;;;22.90;99.20;;;;;;5030352;28;20452;-70
2023/06/14 10:59:20;;;;;;;4.93;4.00;;;22.60;99.00;;;;;;5028210;28;20914;-69
2023/06/14 11:02:04;;;;;;;4.20;3.20;;;22.50;98.80;;;;;;5031302;28;20457;-72
2023/06/14 11:04:47;;;;;;;5.43;3.40;;;22.40;98.80;;;;;;5032908;28;20492;-69
2023/06/14 11:07:46;;;;;;;3.50;3.20;;;22.70;98.50;;;;;;5031408;28;20440;-69
2023/06/14 11:10:37;;;;;;;7.23;3.90;;;22.80;98.00;;;;;;5025271;28;20416;-69
2023/06/14 11:13:03;;;;;;;3.80;3.33;;;22.40;98.40;;;;;;5026598;28;20444;-69
2023/06/14 11:15:30;;;;;;;7.30;4.13;;;22.70;98.70;;;;;;5027547;28;20488;-69
2023/06/14 11:17:57;;;;;;;4.13;3.73;;;22.60;98.00;;;;;;5029331;28;20414;-71
2023/06/14 11:20:26;;;;;;;5.40;3.70;;;22.70;97.60;;;;;;5027905;28;20427;-69
2023/06/14 11:22:53;;;;;;;4.50;3.40;;;22.90;97.20;;;;;;5024494;28;20493;-68
2023/06/14 11:25:19;;;;;;;6.30;3.70;;;22.90;97.20;;;;;;5028631;28;20423;-69
2023/06/14 11:27:46;;;;;;;10.20;3.70;;;22.90;97.00;;;;;;5028245;28;20435;-69
2023/06/14 11:30:13;;;;;;;6.50;4.67;;;23.10;96.60;;;;;;5030446;28;20529;-69
2023/06/14 11:32:38;;;;;;;3.07;2.70;;;23.20;96.40;;;;;;5027732;28;20407;-68
2023/06/14 11:35:06;;;;;;;5.00;2.97;;;23.00;95.70;;;;;;5024065;28;20478;-68
2023/06/14 11:37:34;;;;;;;3.70;3.30;;;23.10;95.70;;;;;;5023449;28;20403;-69
2023/06/14 11:40:03;;;;;;;5.80;3.50;;;23.30;95.70;;;;;;5027214;28;20453;-69
2023/06/14 11:42:29;;;;;;;5.87;3.30;;;23.50;95.10;;;;;;5031337;28;20449;-69
2023/06/14 11:44:55;;;;;;;3.30;3.00;;;23.60;94.90;;;;;;5031956;28;20481;-69
2023/06/14 11:47:21;;;;;;;3.57;3.27;;;23.90;94.50;;;;;;5030843;28;20845;-69
2023/06/14 11:49:47;;;;;;;4.60;3.10;;;23.70;94.60;;;;;;5031037;28;20210;-69
2023/06/14 11:52:14;;;;;;;5.10;3.30;;;23.80;94.30;;;;;;5030925;28;20472;-69
2023/06/14 11:54:40;;;;;;;4.60;3.20;;;23.80;94.30;;;;;;5026287;28;20649;-70
2023/06/14 11:57:07;;;;;;;4.17;3.20;;;23.80;94.20;;;;;;5029600;28;20458;-68
2023/06/14 11:59:39;;;;;;;3.20;2.90;;;24.30;93.60;;;;;;5028903;28;20442;-69
2023/06/14 12:02:06;;;;;;;3.30;2.73;;;24.20;93.10;;;;;;5031153;28;20411;-69
2023/06/14 12:04:32;;;;;;;4.37;3.60;;;23.80;92.30;;;;;;5031497;28;20419;-70
2023/06/14 12:06:57;;;;;;;5.00;3.57;;;23.60;92.60;;;;;;5030925;28;20570;-70
2023/06/14 12:09:25;;;;;;;5.93;3.00;;;23.40;92.00;;;;;;5030229;28;20211;-68
2023/06/14 12:12:01;;;;;;;5.07;3.20;;;23.50;92.00;;;;;;5025722;28;20664;-69
2023/06/14 12:14:31;;;;;;;8.63;2.43;;;23.70;91.00;;;;;;5027652;28;20458;-69
2023/06/14 12:17:07;;;;;;;4.07;2.63;;;23.50;90.20;;;;;;5027609;28;20476;-68
2023/06/14 12:19:33;;;;;;;3.67;3.20;;;23.20;89.90;;;;;;5028237;28;20827;-68
2023/06/14 12:22:04;;;;;;;2.97;2.20;;;23.10;90.20;;;;;;5025451;28;20413;-69
2023/06/14 12:24:32;;;;;;;4.00;2.60;;;22.80;90.20;;;;;;5031512;28;20440;-69
2023/06/14 12:27:02;;;;;;;8.37;3.47;;;22.80;90.20;;;;;;5027494;28;20420;-68
2023/06/14 12:29:28;;;;;;;6.60;2.90;;;22.80;90.10;;;;;;5029367;28;20445;-65
2023/06/14 12:31:56;;;;;;;5.43;2.83;;;23.00;88.00;;;;;;5027604;28;20479;-68
2023/06/14 12:34:23;;;;;;;6.83;2.53;;;23.30;88.40;;;;;;5029809;28;20451;-68
2023/06/14 12:36:50;;;;;;;2.80;2.60;;;23.30;88.00;;;;;;5030933;28;20902;-69
2023/06/14 12:39:16;;;;;;;3.90;3.00;;;23.40;86.60;;;;;;5027599;28;20455;-68
2023/06/14 12:41:42;;;;;;;5.57;3.10;;;23.50;87.80;;;;;;5030092;28;20872;-69
2023/06/14 12:44:07;;;;;;;10.30;3.57;;;23.60;87.00;;;;;;5026736;28;20201;-69
2023/06/14 12:46:34;;;;;;;3.83;3.20;;;23.60;87.10;;;;;;5029719;28;20181;-69
2023/06/14 12:49:00;;;;;;;5.70;3.40;;;23.70;87.50;;;;;;5027142;28;20262;-68
2023/06/14 12:51:26;;;;;;;3.40;3.10;;;23.80;84.80;;;;;;5029852;28;20420;-68